Time;durP1;ratioP1;P1;durP2;ratioP2;P2;SDS_P1;SDS_P2;PMS_P1;PMS_P2;Temp;Humidity;BMP_temperature;BMP_pressure;BME280_temperature;BME280_humidity;BME280_pressure;Samples;Min_cycle;Max_cycle;Signal;HPM_P1;HPM_P2
2023/07/29 00:01:51;;;;;;;12.47;6.23;;;14.30;99.90;;;;;;1960738;72;25354;-89
2023/07/29 00:04:42;;;;;;;9.87;5.83;;;14.30;99.90;;;;;;1950671;73;25294;-89
2023/07/29 00:07:32;;;;;;;15.03;6.07;;;14.20;99.90;;;;;;1950086;73;25665;-89
2023/07/29 00:59:16;;;;;;;4.57;2.27;;;14.10;99.90;;;;;;1992504;71;26991;-90
2023/07/29 01:29:27;;;;;;;5.63;2.40;;;14.10;99.90;;;;;;1922596;73;26361;-91
2023/07/29 01:35:13;;;;;;;4.47;2.97;;;14.00;99.90;;;;;;1953073;72;26931;-90
2023/07/29 01:38:05;;;;;;;3.33;2.43;;;14.00;99.90;;;;;;1935253;73;25553;-90
2023/07/29 01:40:57;;;;;;;3.43;2.83;;;14.00;99.90;;;;;;1931524;73;25294;-91
2023/07/29 01:43:49;;;;;;;6.27;3.17;;;13.90;99.90;;;;;;1924795;73;25266;-90
2023/07/29 01:46:40;;;;;;;6.87;3.47;;;13.90;99.90;;;;;;1910556;73;25187;-91
2023/07/29 02:03:01;;;;;;;6.40;2.73;;;13.90;99.90;;;;;;1874382;71;27185;-89
2023/07/29 03:06:59;;;;;;;6.67;3.67;;;13.50;99.90;;;;;;1982506;71;27114;-89
2023/07/29 03:33:14;;;;;;;9.70;5.20;;;13.90;99.90;;;;;;1986075;71;27529;-92
2023/07/29 03:44:10;;;;;;;7.33;3.57;;;14.70;99.90;;;;;;1988079;71;25262;-91
2023/07/29 03:58:46;;;;;;;7.60;2.80;;;15.50;99.90;;;;;;2002360;71;25610;-92
2023/07/29 04:01:55;;;;;;;9.63;2.77;;;15.80;99.90;;;;;;1962231;71;25318;-92
2023/07/29 04:05:11;;;;;;;4.93;2.80;;;16.00;99.90;;;;;;1997776;71;25269;-92
2023/07/29 04:47:41;;;;;;;12.27;3.33;;;16.20;99.90;;;;;;2003748;71;26882;-90
2023/07/29 04:50:31;;;;;;;15.47;3.20;;;16.50;99.90;;;;;;1956834;72;25219;-90
2023/07/29 04:53:21;;;;;;;10.63;3.13;;;16.60;99.90;;;;;;1915049;74;25279;-90
2023/07/29 04:56:12;;;;;;;8.13;2.90;;;16.60;99.90;;;;;;1956600;72;25285;-90
2023/07/29 04:59:02;;;;;;;8.80;3.10;;;16.80;99.90;;;;;;1960225;72;25229;-90
2023/07/29 05:01:53;;;;;;;6.23;2.90;;;16.80;99.90;;;;;;1977485;72;25239;-90
2023/07/29 05:19:22;;;;;;;7.13;3.10;;;16.90;99.90;;;;;;1909634;74;26680;-91
2023/07/29 05:25:21;;;;;;;10.47;2.93;;;17.30;99.90;;;;;;2028927;69;31247;-91
2023/07/29 05:28:10;;;;;;;15.63;3.40;;;17.10;99.90;;;;;;2011212;71;25637;-90
2023/07/29 05:31:00;;;;;;;5.73;2.90;;;17.10;99.90;;;;;;1986509;71;25185;-90
2023/07/29 05:33:49;;;;;;;13.33;3.20;;;17.00;99.90;;;;;;2009385;70;25156;-91
2023/07/29 05:36:39;;;;;;;7.97;2.80;;;17.50;99.90;;;;;;2013079;70;25203;-91
2023/07/29 05:39:28;;;;;;;8.77;2.93;;;17.80;99.90;;;;;;2011423;70;25232;-91
2023/07/29 05:42:17;;;;;;;6.77;3.17;;;18.00;99.90;;;;;;1985150;70;25319;-90
2023/07/29 05:45:07;;;;;;;18.40;3.47;;;18.30;99.90;;;;;;1976690;71;25213;-91
2023/07/29 05:47:56;;;;;;;7.87;3.30;;;18.50;99.90;;;;;;1961152;71;25213;-91
2023/07/29 05:50:45;;;;;;;10.17;3.13;;;18.60;99.90;;;;;;1979017;71;25744;-91
2023/07/29 05:53:34;;;;;;;7.23;3.00;;;18.70;99.90;;;;;;1978889;71;25227;-91
2023/07/29 05:56:23;;;;;;;8.13;2.90;;;18.60;99.90;;;;;;1977135;71;25229;-91
2023/07/29 06:12:22;;;;;;;7.93;3.63;;;18.70;99.90;;;;;;1833659;76;27195;-90
2023/07/29 06:17:54;;;;;;;8.30;2.90;;;18.40;99.90;;;;;;2010216;69;26999;-92
2023/07/29 06:20:44;;;;;;;9.03;3.13;;;18.00;99.90;;;;;;1958747;72;25261;-91
2023/07/29 06:23:34;;;;;;;7.40;2.80;;;18.20;99.90;;;;;;1947933;72;25199;-91
2023/07/29 06:26:25;;;;;;;6.73;2.87;;;18.50;99.90;;;;;;1967397;72;25234;-91
2023/07/29 06:29:15;;;;;;;5.90;3.00;;;18.70;99.90;;;;;;1964740;72;25768;-91
2023/07/29 06:32:08;;;;;;;7.93;2.80;;;18.80;99.90;;;;;;1957295;72;25234;-90
2023/07/29 06:34:58;;;;;;;10.50;2.73;;;18.80;99.90;;;;;;1968019;72;25301;-91
2023/07/29 06:56:13;;;;;;;9.90;2.90;;;18.70;99.90;;;;;;1960283;71;27194;-91
2023/07/29 06:59:01;;;;;;;7.50;3.07;;;18.70;99.90;;;;;;1973756;72;25155;-91
2023/07/29 07:24:50;;;;;;;10.60;2.87;;;18.80;99.90;;;;;;1913603;73;25334;-88
2023/07/29 07:48:00;;;;;;;4.77;3.10;;;19.20;99.90;;;;;;1901941;74;26473;-91
2023/07/29 08:52:59;;;;;;;12.40;3.30;;;20.30;99.90;;;;;;1944468;71;27350;-91
2023/07/29 08:55:49;;;;;;;6.80;3.40;;;20.30;99.90;;;;;;1927792;72;25198;-91
2023/07/29 08:58:40;;;;;;;7.33;2.83;;;20.30;99.90;;;;;;1898563;75;25185;-91
2023/07/29 09:01:30;;;;;;;6.23;2.90;;;20.30;99.90;;;;;;1846953;76;25218;-91
2023/07/29 09:04:19;;;;;;;5.23;2.97;;;20.30;99.90;;;;;;1879871;75;25654;-91
2023/07/29 09:07:09;;;;;;;10.33;3.40;;;20.40;99.90;;;;;;1884225;75;25244;-91
2023/07/29 09:09:58;;;;;;;8.70;3.00;;;20.80;99.90;;;;;;1876295;75;25269;-91
2023/07/29 09:12:47;;;;;;;7.83;3.23;;;21.20;99.90;;;;;;1882198;75;25286;-91
2023/07/29 09:15:36;;;;;;;5.07;2.67;;;21.30;99.90;;;;;;1879257;75;25351;-91
2023/07/29 09:18:27;;;;;;;6.60;3.07;;;21.10;99.90;;;;;;1873442;75;25256;-91
2023/07/29 09:21:17;;;;;;;5.17;2.63;;;21.30;99.90;;;;;;1876660;75;25265;-91
2023/07/29 09:24:07;;;;;;;5.50;2.60;;;21.10;99.90;;;;;;1877642;75;25735;-91
2023/07/29 09:42:24;;;;;;;8.90;3.20;;;21.10;99.90;;;;;;1969433;71;27021;-91
2023/07/29 09:45:12;;;;;;;6.47;2.90;;;21.40;99.90;;;;;;1986768;72;25233;-90
2023/07/29 09:48:02;;;;;;;7.40;2.93;;;21.60;99.90;;;;;;1982655;71;25133;-91
2023/07/29 09:56:43;;;;;;;7.43;2.97;;;22.00;99.90;;;;;;2004769;71;26950;-90
2023/07/29 09:59:36;;;;;;;4.30;2.70;;;21.70;99.90;;;;;;2004647;70;26148;-91
2023/07/29 10:07:59;;;;;;;4.43;2.47;;;21.40;99.90;;;;;;1952505;72;28782;-89
2023/07/29 10:10:59;;;;;;;5.73;2.87;;;21.50;99.90;;;;;;1907494;74;25233;-90
2023/07/29 10:21:11;;;;;;;5.77;2.93;;;22.30;99.90;;;;;;1905873;74;25256;-90
2023/07/29 10:24:46;;;;;;;5.40;2.63;;;22.20;99.90;;;;;;1910057;74;25570;-89
2023/07/29 10:27:59;;;;;;;5.27;2.90;;;22.40;99.90;;;;;;1916796;74;25251;-90
2023/07/29 10:30:52;;;;;;;5.37;2.87;;;22.20;99.90;;;;;;1914342;74;25249;-89
2023/07/29 10:34:38;;;;;;;6.40;2.70;;;22.20;99.90;;;;;;1914801;74;25240;-90
2023/07/29 10:37:30;;;;;;;5.13;2.47;;;22.30;99.90;;;;;;1917242;74;25185;-90
2023/07/29 10:41:00;;;;;;;3.53;2.90;;;21.90;99.90;;;;;;1924088;74;25341;-90
2023/07/29 11:12:51;;;;;;;3.13;2.23;;;22.00;99.90;;;;;;1907083;74;26912;-91
2023/07/29 11:18:34;;;;;;;6.87;2.43;;;22.30;99.90;;;;;;1978614;71;26938;-91
2023/07/29 11:21:23;;;;;;;3.60;2.67;;;22.30;99.90;;;;;;1947996;72;25220;-90
2023/07/29 11:24:12;;;;;;;6.90;2.73;;;22.20;99.90;;;;;;1896374;74;25268;-90
2023/07/29 11:27:00;;;;;;;3.33;2.57;;;22.10;99.90;;;;;;1953053;72;25308;-90
2023/07/29 11:29:50;;;;;;;2.40;2.20;;;21.90;99.90;;;;;;1944796;72;25734;-90
2023/07/29 11:52:09;;;;;;;5.07;2.40;;;21.90;99.90;;;;;;1952406;72;26620;-90
2023/07/29 11:54:58;;;;;;;4.63;2.17;;;22.00;99.90;;;;;;1916429;73;25216;-90
2023/07/29 11:57:48;;;;;;;3.60;2.50;;;22.10;99.90;;;;;;1934962;73;26482;-90
2023/07/29 12:00:36;;;;;;;6.43;2.57;;;22.00;99.90;;;;;;1930890;73;25262;-90
2023/07/29 12:03:26;;;;;;;4.50;2.77;;;22.10;99.90;;;;;;1938953;73;25284;-90
2023/07/29 12:06:16;;;;;;;4.53;2.73;;;21.90;99.90;;;;;;1921283;73;25247;-90
2023/07/29 12:09:05;;;;;;;5.07;2.70;;;21.80;99.90;;;;;;1922489;73;25212;-90
2023/07/29 12:11:54;;;;;;;3.97;2.27;;;21.40;99.90;;;;;;1925339;73;25308;-90
2023/07/29 12:28:09;;;;;;;4.57;2.90;;;21.90;99.90;;;;;;1942465;72;26992;-90
2023/07/29 12:30:58;;;;;;;3.27;2.90;;;22.00;99.90;;;;;;1925566;73;25257;-90
2023/07/29 12:34:26;;;;;;;4.17;2.73;;;22.10;99.90;;;;;;1920544;73;25213;-90
2023/07/29 13:20:18;;;;;;;3.17;2.63;;;21.80;99.90;;;;;;1901875;74;27628;-90
2023/07/29 13:40:26;;;;;;;6.00;3.00;;;22.00;99.90;;;;;;1908093;74;26777;-90
2023/07/29 13:47:16;;;;;;;6.30;3.00;;;21.90;99.90;;;;;;1875804;75;25271;-91
2023/07/29 13:50:38;;;;;;;3.20;2.53;;;22.00;99.90;;;;;;1869785;75;25264;-90
2023/07/29 14:08:41;;;;;;;6.70;2.73;;;22.10;99.90;;;;;;1880133;75;25266;-90
2023/07/29 14:18:03;;;;;;;3.43;2.73;;;22.10;99.90;;;;;;1926856;74;27250;-90
2023/07/29 14:20:52;;;;;;;7.93;3.10;;;21.90;99.90;;;;;;1915829;75;25199;-91
2023/07/29 14:23:40;;;;;;;4.10;2.63;;;21.80;99.90;;;;;;1900685;74;25765;-90
2023/07/29 14:26:29;;;;;;;4.43;2.83;;;21.90;99.90;;;;;;1896726;75;25222;-90
2023/07/29 14:29:18;;;;;;;4.07;2.60;;;22.00;99.90;;;;;;1888472;74;25226;-90
2023/07/29 14:32:08;;;;;;;2.97;2.60;;;22.10;99.90;;;;;;1892441;75;25253;-90
2023/07/29 14:34:57;;;;;;;3.90;2.60;;;22.10;99.90;;;;;;1913450;74;25183;-90
2023/07/29 14:37:45;;;;;;;4.30;2.50;;;22.10;99.90;;;;;;1893869;74;25274;-91
2023/07/29 14:40:34;;;;;;;5.63;2.80;;;22.20;99.90;;;;;;1905895;74;25318;-90
2023/07/29 14:43:23;;;;;;;3.80;2.90;;;22.20;99.90;;;;;;1866685;76;25285;-90
2023/07/29 14:46:12;;;;;;;3.77;2.60;;;22.20;99.90;;;;;;1875814;76;25185;-90
2023/07/29 15:38:07;;;;;;;5.53;2.50;;;22.10;99.90;;;;;;1989055;71;26264;-91
2023/07/29 15:40:55;;;;;;;5.37;2.87;;;22.10;99.90;;;;;;1949118;72;25320;-90
2023/07/29 15:43:44;;;;;;;6.20;2.67;;;22.20;99.90;;;;;;2006277;70;25274;-90
2023/07/29 15:46:33;;;;;;;2.90;2.50;;;22.20;99.90;;;;;;2015233;70;25165;-90
2023/07/29 15:49:21;;;;;;;4.83;2.50;;;22.00;99.90;;;;;;2028175;69;25212;-90
2023/07/29 15:52:13;;;;;;;4.97;2.40;;;21.80;99.90;;;;;;1998491;70;25331;-90
2023/07/29 15:55:01;;;;;;;4.23;2.67;;;21.80;99.90;;;;;;2012492;70;25235;-90
2023/07/29 15:57:50;;;;;;;3.93;2.90;;;21.80;99.90;;;;;;2011505;70;25283;-91
2023/07/29 16:04:02;;;;;;;3.77;2.70;;;21.80;99.90;;;;;;1976829;71;26330;-90
2023/07/29 16:06:50;;;;;;;4.60;2.87;;;21.70;99.90;;;;;;1952786;72;25239;-91
2023/07/29 16:09:39;;;;;;;4.07;2.80;;;21.30;99.90;;;;;;2039309;69;25286;-91
2023/07/29 16:12:28;;;;;;;7.50;2.73;;;20.90;99.90;;;;;;2041901;69;25669;-90
2023/07/29 16:36:42;;;;;;;3.77;2.33;;;21.20;99.90;;;;;;1977605;71;27437;-90
2023/07/29 16:53:07;;;;;;;4.40;2.60;;;21.10;99.90;;;;;;1906926;73;26849;-90
2023/07/29 17:12:57;;;;;;;2.80;2.47;;;21.50;99.90;;;;;;1944230;72;26927;-90
2023/07/29 17:15:47;;;;;;;3.63;2.80;;;21.50;99.90;;;;;;1926866;73;25251;-90
2023/07/29 17:18:38;;;;;;;3.80;2.60;;;21.50;99.90;;;;;;1917673;73;25294;-94
2023/07/29 17:21:27;;;;;;;4.70;2.87;;;21.30;99.90;;;;;;1931771;73;25223;-90
2023/07/29 17:24:16;;;;;;;3.97;2.60;;;21.20;99.90;;;;;;1929925;72;25648;-89
2023/07/29 17:27:07;;;;;;;3.77;2.50;;;21.10;99.90;;;;;;1934648;73;25685;-90
2023/07/29 17:29:56;;;;;;;7.90;2.47;;;20.80;99.90;;;;;;1935274;73;25241;-90
2023/07/29 17:32:46;;;;;;;8.00;2.70;;;20.60;99.90;;;;;;1928934;73;25300;-90
2023/07/29 17:35:34;;;;;;;5.30;2.57;;;20.60;99.90;;;;;;1940037;73;25245;-91
2023/07/29 17:38:22;;;;;;;4.83;3.00;;;20.70;99.90;;;;;;1931985;73;25222;-90
2023/07/29 17:41:11;;;;;;;4.23;2.87;;;20.70;99.90;;;;;;1943271;73;25334;-91
2023/07/29 17:44:00;;;;;;;6.07;2.70;;;20.40;99.90;;;;;;1949893;72;25369;-91
2023/07/29 17:46:49;;;;;;;4.27;2.67;;;20.20;99.90;;;;;;1926877;72;25336;-91
2023/07/29 18:23:04;;;;;;;5.63;2.90;;;19.40;99.90;;;;;;1947132;71;26783;-91
2023/07/29 18:25:48;;;;;;;4.10;2.90;;;19.30;99.90;;;;;;1966167;72;25314;-91
2023/07/29 18:28:36;;;;;;;3.50;2.90;;;19.30;99.90;;;;;;1954116;72;25235;-91
2023/07/29 18:31:25;;;;;;;4.17;2.80;;;19.40;99.90;;;;;;1973318;72;25169;-90
2023/07/29 18:34:13;;;;;;;4.83;3.17;;;19.30;99.90;;;;;;1972921;72;25240;-90
2023/07/29 18:37:03;;;;;;;6.70;3.03;;;19.40;99.90;;;;;;1965461;72;25158;-91
2023/07/29 19:08:12;;;;;;;5.27;3.07;;;19.20;99.90;;;;;;1913367;73;27513;-90
2023/07/29 19:24:36;;;;;;;4.33;3.27;;;19.40;99.90;;;;;;1873134;74;26396;-91
2023/07/29 19:41:57;;;;;;;4.80;3.00;;;18.80;99.90;;;;;;1961875;70;27012;-91
2023/07/29 20:14:36;;;;;;;4.17;3.37;;;18.30;99.90;;;;;;2043024;69;26907;-91
2023/07/29 20:34:13;;;;;;;3.17;2.87;;;18.10;99.90;;;;;;2023375;70;26967;-90
2023/07/29 20:39:57;;;;;;;4.10;3.20;;;17.70;99.90;;;;;;1968483;72;27296;-91
2023/07/29 20:42:47;;;;;;;4.40;3.10;;;17.50;99.90;;;;;;1917839;73;25315;-90
2023/07/29 20:48:22;;;;;;;4.77;3.57;;;17.40;99.90;;;;;;1921707;72;27472;-90
2023/07/29 20:51:10;;;;;;;5.50;3.30;;;17.20;99.90;;;;;;1906154;73;26451;-91
2023/07/29 20:53:59;;;;;;;10.93;3.90;;;17.00;99.90;;;;;;1896398;73;25211;-91
2023/07/29 20:56:48;;;;;;;5.83;3.63;;;16.90;99.90;;;;;;1911225;73;25240;-91
2023/07/29 20:59:36;;;;;;;5.07;3.40;;;16.80;99.90;;;;;;1903751;73;25243;-91
2023/07/29 21:02:25;;;;;;;6.20;4.20;;;16.70;99.90;;;;;;1913060;73;25646;-91
2023/07/29 21:05:17;;;;;;;6.70;4.47;;;16.60;99.90;;;;;;1901525;73;25255;-91
2023/07/29 21:08:06;;;;;;;5.57;3.67;;;16.60;99.90;;;;;;1902081;73;25770;-91
2023/07/29 21:10:56;;;;;;;3.83;3.23;;;16.70;99.90;;;;;;1914866;73;25213;-91
2023/07/29 21:54:12;;;;;;;4.00;3.60;;;16.40;99.90;;;;;;1926723;72;27197;-90
2023/07/29 22:16:06;;;;;;;5.40;3.87;;;17.00;99.90;;;;;;1912068;74;26917;-90
2023/07/29 22:46:03;;;;;;;6.80;4.33;;;17.20;99.90;;;;;;1973906;71;26960;-89
2023/07/29 23:03:20;;;;;;;10.37;4.60;;;16.90;99.90;;;;;;1914999;72;26643;-91
2023/07/29 23:09:27;;;;;;;8.03;4.53;;;17.10;99.90;;;;;;1934321;73;27155;-91
2023/07/29 23:12:16;;;;;;;7.93;4.93;;;17.20;99.90;;;;;;1926019;74;25723;-91
2023/07/29 23:15:07;;;;;;;5.53;4.50;;;17.20;99.90;;;;;;1892632;74;25290;-91
2023/07/29 23:17:56;;;;;;;9.17;4.70;;;17.30;99.90;;;;;;1939463;72;25422;-91
2023/07/29 23:20:46;;;;;;;5.63;4.60;;;17.30;99.90;;;;;;1891351;74;25642;-91
2023/07/29 23:23:35;;;;;;;9.47;4.87;;;17.20;99.90;;;;;;1931224;74;25163;-91
2023/07/29 23:26:24;;;;;;;11.67;5.00;;;17.20;99.90;;;;;;1894950;74;25223;-91
2023/07/29 23:29:13;;;;;;;8.00;5.23;;;17.20;99.90;;;;;;1921319;73;25329;-91
2023/07/29 23:32:03;;;;;;;9.97;4.97;;;17.20;99.90;;;;;;1888797;75;25591;-91
2023/07/29 23:34:51;;;;;;;7.50;5.20;;;17.20;99.90;;;;;;1890001;75;25301;-91
2023/07/29 23:51:07;;;;;;;8.37;5.40;;;17.20;99.90;;;;;;1976838;72;27097;-89
